Time;durP1;ratioP1;P1;durP2;ratioP2;P2;SDS_P1;SDS_P2;PMS_P1;PMS_P2;Temp;Humidity;BMP_temperature;BMP_pressure;BME280_temperature;BME280_humidity;BME280_pressure;Samples;Min_cycle;Max_cycle;Signal;HPM_P1;HPM_P2
2021/04/26 00:01:14;;;;;;;7.00;3.80;;;4.30;99.90;;;;;;5036145;28;20241;-72
2021/04/26 00:03:40;;;;;;;6.60;3.77;;;4.20;99.90;;;;;;5033048;28;20336;-73
2021/04/26 00:06:09;;;;;;;6.73;4.30;;;4.20;99.90;;;;;;5032155;28;20322;-72
2021/04/26 00:08:36;;;;;;;6.77;4.17;;;4.20;99.90;;;;;;5033216;28;20692;-72
2021/04/26 00:11:02;;;;;;;8.47;4.50;;;4.10;99.90;;;;;;5035518;28;20207;-72
2021/04/26 00:13:31;;;;;;;9.27;4.47;;;4.10;99.90;;;;;;5030069;28;20230;-74
2021/04/26 00:15:57;;;;;;;6.97;4.17;;;4.20;99.90;;;;;;5033407;28;20261;-72
2021/04/26 00:18:24;;;;;;;7.33;4.30;;;4.10;99.90;;;;;;5033474;28;20283;-73
2021/04/26 00:20:50;;;;;;;6.07;3.80;;;4.10;99.90;;;;;;5033160;28;20301;-73
2021/04/26 00:23:19;;;;;;;6.73;3.80;;;4.10;99.90;;;;;;5034232;28;20214;-73
2021/04/26 00:25:48;;;;;;;8.43;4.70;;;4.20;99.90;;;;;;5035804;28;20306;-73
2021/04/26 00:28:15;;;;;;;8.30;4.57;;;4.10;99.90;;;;;;5035375;28;20202;-74
2021/04/26 00:30:42;;;;;;;7.00;4.10;;;4.00;99.90;;;;;;5032063;28;20765;-72
2021/04/26 00:33:08;;;;;;;7.57;4.10;;;4.00;99.90;;;;;;5033057;28;20571;-74
2021/04/26 00:35:35;;;;;;;8.43;4.70;;;4.00;99.90;;;;;;5035131;28;20210;-73
2021/04/26 00:38:01;;;;;;;7.60;4.37;;;4.00;99.90;;;;;;5033235;28;20261;-73
2021/04/26 00:40:28;;;;;;;8.60;4.60;;;4.00;99.90;;;;;;5036387;28;20264;-73
2021/04/26 00:42:56;;;;;;;9.23;4.87;;;4.00;99.90;;;;;;5034561;28;20293;-75
2021/04/26 00:45:26;;;;;;;7.93;4.20;;;4.00;99.90;;;;;;5033685;28;20302;-73
2021/04/26 00:47:54;;;;;;;8.20;4.50;;;4.00;99.90;;;;;;5034834;28;20202;-73
2021/04/26 00:50:23;;;;;;;8.77;4.47;;;4.00;99.90;;;;;;5035349;28;20203;-72
2021/04/26 00:52:51;;;;;;;7.53;4.20;;;3.80;99.90;;;;;;5034009;28;20202;-73
2021/04/26 00:55:19;;;;;;;8.17;4.63;;;3.90;99.90;;;;;;5031141;28;20294;-73
2021/04/26 00:57:46;;;;;;;6.47;4.33;;;3.80;99.90;;;;;;5035216;28;20672;-73
2021/04/26 01:00:14;;;;;;;6.43;4.37;;;3.80;99.90;;;;;;5032014;28;20294;-72
2021/04/26 01:02:41;;;;;;;6.10;4.60;;;3.80;99.90;;;;;;5030049;28;20225;-73
2021/04/26 01:05:13;;;;;;;8.27;4.43;;;3.70;99.90;;;;;;5032565;28;20238;-73
2021/04/26 01:07:42;;;;;;;6.77;4.80;;;3.70;99.90;;;;;;5032407;28;20234;-71
2021/04/26 01:10:12;;;;;;;7.53;4.50;;;3.70;99.90;;;;;;5035428;28;20215;-73
2021/04/26 01:12:55;;;;;;;8.67;4.63;;;3.70;99.90;;;;;;5028688;28;20218;-73
2021/04/26 01:15:26;;;;;;;8.13;4.63;;;3.70;99.90;;;;;;5033274;28;20236;-72
2021/04/26 01:17:57;;;;;;;8.13;4.97;;;3.70;99.90;;;;;;5035300;28;20306;-73
2021/04/26 01:21:13;;;;;;;6.17;4.20;;;3.80;99.90;;;;;;5035039;28;20716;-72
2021/04/26 01:24:11;;;;;;;7.13;3.83;;;3.70;99.90;;;;;;5032909;28;20257;-72
2021/04/26 01:26:57;;;;;;;7.17;5.20;;;3.70;99.90;;;;;;5029010;28;20213;-72
2021/04/26 01:29:40;;;;;;;8.37;4.63;;;3.70;99.90;;;;;;5032515;28;20195;-72
2021/04/26 01:32:17;;;;;;;14.27;4.97;;;3.70;99.90;;;;;;5028606;28;20325;-72
2021/04/26 01:34:46;;;;;;;8.47;4.83;;;3.60;99.90;;;;;;5030779;28;20206;-71
2021/04/26 01:37:14;;;;;;;10.00;4.87;;;3.70;99.90;;;;;;5032436;28;20238;-73
2021/04/26 01:39:43;;;;;;;8.57;4.70;;;3.70;99.90;;;;;;5032556;28;20696;-72
2021/04/26 01:42:11;;;;;;;10.47;5.37;;;3.70;99.90;;;;;;5031513;28;20255;-73
2021/04/26 01:44:38;;;;;;;8.97;5.53;;;3.70;99.90;;;;;;5032866;28;20304;-72
2021/04/26 01:47:06;;;;;;;10.50;4.97;;;3.70;99.90;;;;;;5031390;28;20683;-73
2021/04/26 01:49:35;;;;;;;9.33;5.30;;;3.60;99.90;;;;;;5034141;28;20564;-72
2021/04/26 01:52:03;;;;;;;9.23;5.40;;;3.60;99.90;;;;;;5029016;28;20233;-72
2021/04/26 01:54:30;;;;;;;10.40;5.13;;;3.60;99.90;;;;;;5033162;28;20576;-71
2021/04/26 01:56:58;;;;;;;12.87;5.40;;;3.60;99.90;;;;;;5030762;28;20745;-73
2021/04/26 01:59:25;;;;;;;8.80;5.37;;;3.60;99.90;;;;;;5029966;28;20313;-72
2021/04/26 02:01:53;;;;;;;9.60;4.70;;;3.60;99.90;;;;;;5032711;28;20211;-72
2021/04/26 02:04:21;;;;;;;10.10;5.33;;;3.60;99.90;;;;;;5032303;28;20246;-72
2021/04/26 02:06:50;;;;;;;11.90;5.83;;;3.60;99.90;;;;;;5034733;28;20210;-72
2021/04/26 02:09:18;;;;;;;8.40;5.10;;;3.60;99.90;;;;;;5035398;28;20202;-73
2021/04/26 02:11:45;;;;;;;9.97;5.57;;;3.50;99.90;;;;;;5035050;28;20264;-72
2021/04/26 02:14:12;;;;;;;7.30;4.97;;;3.50;99.90;;;;;;5036919;28;20237;-72
2021/04/26 02:16:40;;;;;;;8.17;5.37;;;3.50;99.90;;;;;;5035353;28;20203;-72
2021/04/26 02:19:06;;;;;;;12.87;5.47;;;3.60;99.90;;;;;;5039024;28;20722;-74
2021/04/26 02:21:34;;;;;;;8.23;5.30;;;3.60;99.90;;;;;;5032120;28;20215;-73
2021/04/26 02:24:01;;;;;;;10.23;5.83;;;3.60;99.90;;;;;;5036162;28;20207;-72
2021/04/26 02:26:27;;;;;;;11.93;6.10;;;3.60;99.90;;;;;;5034150;28;20214;-74
2021/04/26 02:28:53;;;;;;;10.43;6.23;;;3.60;99.90;;;;;;5036837;28;20315;-73
2021/04/26 02:31:24;;;;;;;9.60;5.83;;;3.60;99.90;;;;;;5036141;28;20253;-72
2021/04/26 02:33:55;;;;;;;9.43;5.43;;;3.50;99.90;;;;;;5034419;28;20739;-72
2021/04/26 02:36:25;;;;;;;13.10;6.97;;;3.60;99.90;;;;;;5032917;28;20616;-71
2021/04/26 02:38:53;;;;;;;9.40;6.60;;;3.60;99.90;;;;;;5037256;28;20214;-72
2021/04/26 02:41:27;;;;;;;12.43;5.70;;;3.50;99.90;;;;;;5038099;28;20233;-73
2021/04/26 02:43:57;;;;;;;8.80;5.53;;;3.50;99.90;;;;;;5034606;28;20230;-72
2021/04/26 02:46:27;;;;;;;13.67;6.23;;;3.50;99.90;;;;;;5035104;28;20241;-73
2021/04/26 02:48:54;;;;;;;11.23;6.60;;;3.50;99.90;;;;;;5034712;28;20203;-72
2021/04/26 02:51:21;;;;;;;13.37;6.80;;;3.40;99.90;;;;;;5030866;28;20227;-73
2021/04/26 02:53:51;;;;;;;11.83;6.40;;;3.40;99.90;;;;;;5037043;28;20209;-72
2021/04/26 02:56:19;;;;;;;12.50;6.60;;;3.40;99.90;;;;;;5033991;28;20206;-71
2021/04/26 02:58:51;;;;;;;10.17;5.97;;;3.40;99.90;;;;;;5035804;28;20252;-72
2021/04/26 03:01:18;;;;;;;9.87;5.90;;;3.40;99.90;;;;;;5035596;28;20275;-72
2021/04/26 03:03:45;;;;;;;10.90;6.47;;;3.50;99.90;;;;;;5036083;28;20210;-71
2021/04/26 03:06:14;;;;;;;10.70;6.73;;;3.40;99.90;;;;;;5032704;28;20220;-72
2021/04/26 03:08:41;;;;;;;10.50;6.13;;;3.40;99.90;;;;;;5032259;28;20199;-72
2021/04/26 03:11:12;;;;;;;11.80;6.30;;;3.40;99.90;;;;;;5032774;28;20254;-73
2021/04/26 03:13:42;;;;;;;8.63;6.07;;;3.40;99.90;;;;;;5035047;28;20230;-72
2021/04/26 03:16:10;;;;;;;7.80;5.47;;;3.30;99.90;;;;;;5034222;28;20301;-71
2021/04/26 03:18:38;;;;;;;9.97;5.67;;;3.40;99.90;;;;;;5033003;28;20237;-71
2021/04/26 03:21:08;;;;;;;8.97;5.93;;;3.30;99.90;;;;;;5033100;28;20222;-72
2021/04/26 03:23:36;;;;;;;10.23;6.20;;;3.30;99.90;;;;;;5032771;28;20211;-71
2021/04/26 03:26:05;;;;;;;9.03;5.27;;;3.20;99.90;;;;;;5031423;28;20206;-70
2021/04/26 03:28:34;;;;;;;8.10;5.50;;;3.20;99.90;;;;;;5033247;28;20203;-71
2021/04/26 03:31:03;;;;;;;8.83;5.47;;;3.30;99.90;;;;;;5032696;28;20321;-71
2021/04/26 03:33:33;;;;;;;8.50;5.27;;;3.30;99.90;;;;;;5034710;28;20213;-71
2021/04/26 03:36:01;;;;;;;10.07;5.53;;;3.40;99.90;;;;;;5032473;28;20367;-71
2021/04/26 03:38:28;;;;;;;9.07;5.83;;;3.40;99.90;;;;;;5035624;28;20321;-71
2021/04/26 03:40:57;;;;;;;10.63;5.47;;;3.50;99.90;;;;;;5029996;28;20213;-72
2021/04/26 03:43:24;;;;;;;7.97;5.03;;;3.50;99.90;;;;;;5035709;28;20226;-72
2021/04/26 03:45:52;;;;;;;8.93;5.53;;;3.50;99.90;;;;;;5035579;28;20715;-72
2021/04/26 03:48:18;;;;;;;8.93;5.60;;;3.50;99.90;;;;;;5034975;28;20555;-73
2021/04/26 03:50:46;;;;;;;8.60;5.47;;;3.60;99.90;;;;;;5033302;28;20218;-71
2021/04/26 03:53:12;;;;;;;9.77;5.30;;;3.60;99.90;;;;;;5035485;28;20217;-72
2021/04/26 03:55:39;;;;;;;9.20;5.37;;;3.60;99.90;;;;;;5034518;28;20649;-72
2021/04/26 03:58:06;;;;;;;12.47;5.60;;;3.60;99.90;;;;;;5034520;28;20757;-73
2021/04/26 04:00:34;;;;;;;12.23;5.67;;;3.50;99.90;;;;;;5033979;28;20233;-72
2021/04/26 04:03:04;;;;;;;8.80;5.43;;;3.60;99.90;;;;;;5032791;28;20681;-71
2021/04/26 04:05:31;;;;;;;8.97;5.00;;;3.60;99.90;;;;;;5032264;28;20230;-72
2021/04/26 04:07:59;;;;;;;10.77;5.07;;;3.70;99.90;;;;;;5032643;28;20207;-72
2021/04/26 04:10:25;;;;;;;12.03;4.93;;;3.70;99.90;;;;;;5036177;28;20222;-73
2021/04/26 04:12:51;;;;;;;11.07;5.53;;;3.70;99.90;;;;;;5029999;28;20214;-72
2021/04/26 04:15:18;;;;;;;9.37;5.40;;;3.70;99.90;;;;;;5033352;28;20569;-73
2021/04/26 04:17:44;;;;;;;10.10;5.53;;;3.70;99.90;;;;;;5034846;28;20203;-72
2021/04/26 04:20:13;;;;;;;8.77;4.87;;;3.60;99.90;;;;;;5032909;28;20265;-72
2021/04/26 04:22:40;;;;;;;7.37;5.03;;;3.70;99.90;;;;;;5033806;28;20275;-73
2021/04/26 04:25:09;;;;;;;8.73;5.43;;;3.70;99.90;;;;;;5031836;28;20286;-72
2021/04/26 04:27:36;;;;;;;11.40;5.20;;;3.70;99.90;;;;;;5034657;28;20239;-72
2021/04/26 04:30:05;;;;;;;9.73;4.90;;;3.80;99.90;;;;;;5028557;28;20249;-71
2021/04/26 04:32:31;;;;;;;11.87;5.30;;;3.90;99.90;;;;;;5033900;28;20904;-72
2021/04/26 04:34:58;;;;;;;8.73;5.60;;;4.00;99.90;;;;;;5030459;28;20222;-72
2021/04/26 04:37:24;;;;;;;9.80;4.90;;;4.00;99.90;;;;;;5035296;28;20206;-72
2021/04/26 04:39:51;;;;;;;7.53;4.83;;;4.00;99.90;;;;;;5034690;28;20230;-71
2021/04/26 04:42:18;;;;;;;7.40;5.43;;;4.10;99.90;;;;;;5029601;28;20233;-73
2021/04/26 04:44:45;;;;;;;8.63;5.30;;;4.10;99.90;;;;;;5034479;28;20333;-72
2021/04/26 04:47:11;;;;;;;8.37;5.07;;;4.10;99.90;;;;;;5034781;28;20297;-72
2021/04/26 04:49:38;;;;;;;7.60;4.67;;;4.20;99.90;;;;;;5028723;28;20238;-72
2021/04/26 04:52:05;;;;;;;7.80;4.57;;;4.20;99.90;;;;;;5034596;28;20243;-71
2021/04/26 04:54:31;;;;;;;11.33;4.80;;;4.20;99.90;;;;;;5032833;28;20271;-73
2021/04/26 04:56:58;;;;;;;8.27;5.00;;;4.20;99.90;;;;;;5034568;28;20210;-72
2021/04/26 04:59:27;;;;;;;7.17;4.53;;;4.30;99.90;;;;;;5034924;28;20229;-71
2021/04/26 05:01:54;;;;;;;9.03;4.97;;;4.40;99.90;;;;;;5033655;28;20214;-71
2021/04/26 05:04:20;;;;;;;7.93;4.83;;;4.40;99.90;;;;;;5032618;28;20215;-71
2021/04/26 05:06:47;;;;;;;6.53;4.73;;;4.50;99.90;;;;;;5030915;28;20290;-71
2021/04/26 05:09:13;;;;;;;9.60;4.73;;;4.50;99.90;;;;;;5033058;28;20206;-73
2021/04/26 05:11:41;;;;;;;9.63;5.20;;;4.50;99.90;;;;;;5027234;28;20292;-72
2021/04/26 05:14:07;;;;;;;9.63;4.87;;;4.60;99.90;;;;;;5028844;28;20249;-73
2021/04/26 05:16:35;;;;;;;7.60;4.27;;;4.70;99.90;;;;;;5031634;28;20206;-71
2021/04/26 05:19:03;;;;;;;7.57;3.90;;;4.90;99.90;;;;;;5033675;28;20222;-72
2021/04/26 05:21:29;;;;;;;6.10;3.30;;;4.90;99.90;;;;;;5033165;28;20264;-71
2021/04/26 05:23:56;;;;;;;7.40;4.20;;;5.00;99.90;;;;;;5033106;28;20216;-74
2021/04/26 05:26:25;;;;;;;7.90;3.70;;;5.00;99.90;;;;;;5026858;28;20203;-71
2021/04/26 05:28:52;;;;;;;7.93;3.83;;;5.00;99.90;;;;;;5026613;28;20207;-72
2021/04/26 05:31:18;;;;;;;7.00;3.87;;;5.10;99.90;;;;;;5025211;28;20325;-71
2021/04/26 05:33:45;;;;;;;5.27;3.27;;;5.20;99.90;;;;;;5022791;28;20214;-72
2021/04/26 05:36:12;;;;;;;6.80;3.03;;;5.30;99.90;;;;;;5030229;28;21286;-73
2021/04/26 05:38:38;;;;;;;4.93;3.47;;;5.30;99.90;;;;;;5030434;28;20289;-72
2021/04/26 05:41:04;;;;;;;8.60;3.90;;;5.40;99.90;;;;;;5037472;28;20314;-74
2021/04/26 05:43:32;;;;;;;6.53;4.00;;;5.50;99.80;;;;;;5037157;28;20206;-75
2021/04/26 05:45:59;;;;;;;5.10;3.17;;;5.60;99.40;;;;;;5032775;28;20314;-73
2021/04/26 05:48:25;;;;;;;4.67;2.77;;;5.60;99.10;;;;;;5035690;28;20194;-72
2021/04/26 05:50:53;;;;;;;5.57;2.83;;;5.60;98.60;;;;;;5037677;28;20260;-72
2021/04/26 05:53:21;;;;;;;6.90;3.10;;;5.60;98.30;;;;;;5031145;28;20207;-72
2021/04/26 05:55:47;;;;;;;4.43;2.63;;;5.70;98.00;;;;;;5036887;28;20619;-73
2021/04/26 05:58:14;;;;;;;7.50;3.23;;;5.80;97.50;;;;;;5035360;28;20238;-73
2021/04/26 06:00:40;;;;;;;7.80;2.50;;;5.80;97.10;;;;;;5033449;28;20758;-72
2021/04/26 06:03:07;;;;;;;3.80;2.90;;;5.80;96.80;;;;;;5035138;28;20697;-73
2021/04/26 06:05:34;;;;;;;3.83;2.63;;;5.90;96.10;;;;;;5036918;28;20279;-72
2021/04/26 06:08:01;;;;;;;7.27;2.10;;;5.90;95.80;;;;;;5034559;28;20203;-72
2021/04/26 06:10:28;;;;;;;3.47;1.90;;;6.00;95.70;;;;;;5036009;28;20225;-73
2021/04/26 06:12:54;;;;;;;3.93;2.00;;;6.10;95.50;;;;;;5035600;28;20241;-74
2021/04/26 06:15:22;;;;;;;2.37;1.73;;;6.20;95.00;;;;;;5034768;28;20222;-74
2021/04/26 06:17:49;;;;;;;4.73;1.73;;;6.30;94.70;;;;;;5031907;28;20207;-73
2021/04/26 06:20:16;;;;;;;4.37;1.83;;;6.40;94.10;;;;;;5036318;28;20665;-72
2021/04/26 06:22:42;;;;;;;3.10;1.90;;;6.50;93.80;;;;;;5035938;28;20297;-74
2021/04/26 06:25:10;;;;;;;1.83;1.37;;;6.60;93.40;;;;;;5034358;28;20700;-74
2021/04/26 06:27:37;;;;;;;4.93;1.40;;;6.70;92.90;;;;;;5033896;28;20234;-72
2021/04/26 06:30:05;;;;;;;3.30;1.20;;;6.70;92.20;;;;;;5030795;28;20281;-73
2021/04/26 06:32:31;;;;;;;2.87;1.50;;;6.70;91.60;;;;;;5030252;28;20295;-72
2021/04/26 06:34:58;;;;;;;2.57;1.33;;;6.70;91.10;;;;;;5026967;28;20554;-72
2021/04/26 06:37:25;;;;;;;1.57;1.13;;;6.80;91.10;;;;;;5034732;28;20207;-73
2021/04/26 06:39:51;;;;;;;1.40;1.30;;;7.00;90.60;;;;;;5033505;28;20277;-74
2021/04/26 06:42:18;;;;;;;1.47;1.23;;;7.00;90.30;;;;;;5033256;28;20242;-71
2021/04/26 06:44:45;;;;;;;1.97;1.40;;;7.00;89.50;;;;;;5027448;28;20237;-71
2021/04/26 06:47:11;;;;;;;2.27;1.43;;;7.10;88.10;;;;;;5024776;28;20227;-72
2021/04/26 06:49:38;;;;;;;1.23;1.00;;;7.10;87.30;;;;;;5028968;28;20668;-72
2021/04/26 06:52:05;;;;;;;1.97;1.10;;;7.20;86.20;;;;;;5027291;28;20278;-72
2021/04/26 06:54:33;;;;;;;2.97;1.20;;;7.20;85.50;;;;;;5026726;28;20234;-73
2021/04/26 06:56:59;;;;;;;2.40;1.37;;;7.30;84.50;;;;;;5026410;28;20582;-73
2021/04/26 06:59:27;;;;;;;2.67;1.10;;;7.40;83.50;;;;;;5034397;28;20317;-70
2021/04/26 07:01:53;;;;;;;1.27;1.00;;;7.50;83.40;;;;;;5032687;28;20696;-70
2021/04/26 07:04:19;;;;;;;1.97;1.10;;;7.70;82.00;;;;;;5033845;28;20278;-72
2021/04/26 07:06:46;;;;;;;1.50;1.00;;;7.80;79.80;;;;;;5032820;28;20222;-73
2021/04/26 07:09:12;;;;;;;1.73;1.10;;;7.90;78.30;;;;;;5032664;28;20230;-72
2021/04/26 07:11:39;;;;;;;1.30;1.20;;;7.90;76.00;;;;;;5035522;28;20203;-74
2021/04/26 07:14:05;;;;;;;1.50;1.20;;;7.80;73.70;;;;;;5029661;28;20227;-76
2021/04/26 07:16:33;;;;;;;1.40;1.00;;;7.80;73.20;;;;;;5030523;28;20288;-74
2021/04/26 07:19:00;;;;;;;2.17;1.33;;;7.90;72.30;;;;;;5030490;28;20806;-74
2021/04/26 07:21:26;;;;;;;2.93;1.00;;;7.90;71.70;;;;;;5031316;28;20202;-73
2021/04/26 07:23:52;;;;;;;2.40;1.00;;;8.00;71.30;;;;;;5032675;28;20288;-72
2021/04/26 07:26:19;;;;;;;2.23;1.20;;;8.10;70.70;;;;;;5031641;28;20207;-71
2021/04/26 07:28:45;;;;;;;0.97;0.87;;;8.30;69.30;;;;;;5035005;28;20720;-73
2021/04/26 07:31:12;;;;;;;1.30;1.00;;;8.40;68.10;;;;;;5033015;28;20242;-72
2021/04/26 07:33:39;;;;;;;2.33;1.00;;;8.50;66.10;;;;;;5028773;28;20242;-71
2021/04/26 07:36:06;;;;;;;14.03;8.00;;;8.60;64.00;;;;;;5035452;28;20293;-72
2021/04/26 07:38:34;;;;;;;3.53;1.83;;;8.50;62.60;;;;;;5033323;28;20345;-71
2021/04/26 07:41:00;;;;;;;0.97;0.80;;;8.60;61.90;;;;;;5034967;28;20639;-73
2021/04/26 07:43:27;;;;;;;1.30;0.90;;;8.70;60.10;;;;;;5032581;28;20231;-72
2021/04/26 07:45:54;;;;;;;1.83;0.93;;;8.60;57.80;;;;;;5030423;28;20245;-73
2021/04/26 07:48:20;;;;;;;5.13;1.00;;;8.70;57.10;;;;;;5034703;28;20285;-73
2021/04/26 07:50:48;;;;;;;1.20;0.80;;;8.80;57.10;;;;;;5034170;28;20211;-73
2021/04/26 07:53:15;;;;;;;2.40;1.03;;;8.80;57.10;;;;;;5032432;28;20302;-73
2021/04/26 07:55:41;;;;;;;1.93;0.93;;;9.00;57.60;;;;;;5030670;28;20238;-73
2021/04/26 07:58:08;;;;;;;2.00;0.80;;;9.10;56.70;;;;;;5030715;28;20661;-73
2021/04/26 08:00:35;;;;;;;0.73;0.70;;;9.30;56.00;;;;;;5031098;28;20207;-67
2021/04/26 08:03:01;;;;;;;1.63;0.50;;;9.30;55.40;;;;;;5034049;28;20238;-71
2021/04/26 08:05:28;;;;;;;4.60;0.80;;;9.30;54.70;;;;;;5032887;28;20278;-73
2021/04/26 08:07:56;;;;;;;2.37;0.93;;;9.30;54.80;;;;;;5030155;28;20207;-72
2021/04/26 08:10:23;;;;;;;2.10;1.10;;;9.50;55.30;;;;;;5029170;28;20213;-71
2021/04/26 08:12:49;;;;;;;1.27;1.17;;;9.50;54.50;;;;;;5033584;28;20221;-71
2021/04/26 08:15:16;;;;;;;0.80;0.80;;;9.70;54.50;;;;;;5028805;28;20334;-72
2021/04/26 08:17:42;;;;;;;1.70;0.90;;;9.70;53.30;;;;;;5025367;28;20203;-73
2021/04/26 08:20:11;;;;;;;1.07;0.70;;;9.90;53.00;;;;;;5033831;28;20260;-72
2021/04/26 08:22:37;;;;;;;2.83;1.10;;;10.10;51.50;;;;;;5030931;28;20639;-70
2021/04/26 08:25:06;;;;;;;0.80;0.70;;;10.20;51.00;;;;;;5031471;28;20199;-73
2021/04/26 08:27:32;;;;;;;0.93;0.70;;;10.30;50.70;;;;;;5030070;28;20295;-72
2021/04/26 08:29:59;;;;;;;1.97;0.90;;;10.50;50.10;;;;;;5032965;28;20252;-73
2021/04/26 08:32:25;;;;;;;1.03;0.80;;;10.50;49.10;;;;;;5035784;28;20225;-73
2021/04/26 08:34:51;;;;;;;2.13;1.20;;;10.50;48.70;;;;;;5031326;28;20242;-72
2021/04/26 08:37:18;;;;;;;3.23;1.10;;;10.40;48.00;;;;;;5032713;28;20298;-73
2021/04/26 08:39:44;;;;;;;2.93;1.23;;;10.30;47.90;;;;;;5027105;28;20318;-72
2021/04/26 08:42:15;;;;;;;3.23;0.83;;;10.40;47.60;;;;;;5035154;28;20659;-73
2021/04/26 08:44:41;;;;;;;1.47;0.70;;;10.50;46.90;;;;;;5035538;28;20226;-72
2021/04/26 08:47:09;;;;;;;1.13;0.70;;;10.50;46.00;;;;;;5028321;28;20249;-73
2021/04/26 08:49:36;;;;;;;0.70;0.70;;;10.60;45.80;;;;;;5035935;28;20205;-73
2021/04/26 08:52:03;;;;;;;1.13;0.83;;;10.70;45.50;;;;;;5035228;28;20232;-74
2021/04/26 08:54:31;;;;;;;2.80;0.90;;;11.00;45.10;;;;;;5029775;28;20214;-74
2021/04/26 08:56:58;;;;;;;1.10;0.70;;;11.20;43.80;;;;;;5034444;28;20202;-72
2021/04/26 08:59:26;;;;;;;0.77;0.57;;;11.30;43.20;;;;;;5027164;28;20324;-72
2021/04/26 09:02:00;;;;;;;1.53;0.70;;;11.40;42.80;;;;;;5027854;28;20617;-72
2021/04/26 09:04:27;;;;;;;1.40;0.83;;;11.50;42.70;;;;;;5028275;28;20636;-74
2021/04/26 09:06:58;;;;;;;1.83;0.80;;;11.50;42.20;;;;;;5029130;28;20209;-73
2021/04/26 09:09:38;;;;;;;0.87;0.63;;;11.40;41.90;;;;;;5029784;28;20219;-72
2021/04/26 09:12:07;;;;;;;0.57;0.50;;;11.50;42.30;;;;;;5029004;28;20281;-73
2021/04/26 09:14:43;;;;;;;0.83;0.70;;;11.50;42.00;;;;;;5027857;28;20262;-71
2021/04/26 09:17:33;;;;;;;1.33;0.63;;;11.50;41.90;;;;;;5034989;28;20306;-71
2021/04/26 09:20:03;;;;;;;0.90;0.80;;;11.60;41.50;;;;;;5030271;28;20223;-72
2021/04/26 09:22:44;;;;;;;1.40;0.73;;;11.80;41.00;;;;;;5030821;28;20250;-73
2021/04/26 09:25:23;;;;;;;1.17;0.90;;;11.90;40.60;;;;;;5033400;28;20234;-73
2021/04/26 09:28:04;;;;;;;2.70;0.80;;;12.00;40.50;;;;;;5032567;28;20302;-72
2021/04/26 09:30:41;;;;;;;0.60;0.60;;;12.30;40.10;;;;;;5033995;28;20269;-72
2021/04/26 09:33:29;;;;;;;1.80;0.80;;;12.30;39.30;;;;;;5033102;28;20227;-72
2021/04/26 09:36:08;;;;;;;1.00;0.70;;;12.00;38.80;;;;;;5034043;28;20211;-71
2021/04/26 09:38:36;;;;;;;2.03;0.80;;;12.00;39.90;;;;;;5030593;28;20199;-73
2021/04/26 09:41:24;;;;;;;1.53;1.20;;;12.00;40.30;;;;;;5029010;28;20199;-71
2021/04/26 09:44:06;;;;;;;3.03;1.40;;;12.40;40.70;;;;;;5021547;28;20289;-71
2021/04/26 09:46:40;;;;;;;1.40;0.83;;;12.70;40.80;;;;;;5027474;28;20223;-72
2021/04/26 09:49:12;;;;;;;1.63;0.83;;;13.00;39.10;;;;;;5036907;28;20658;-72
2021/04/26 09:51:38;;;;;;;1.33;0.90;;;13.20;38.40;;;;;;5032038;28;20214;-72
2021/04/26 09:54:06;;;;;;;1.00;0.93;;;13.20;37.70;;;;;;5035238;28;20203;-72
2021/04/26 09:56:41;;;;;;;1.63;0.63;;;13.20;37.70;;;;;;5036867;28;20279;-73
2021/04/26 09:59:08;;;;;;;0.90;0.77;;;13.10;37.60;;;;;;5035070;28;20218;-73
2021/04/26 10:01:36;;;;;;;1.73;0.90;;;13.10;37.70;;;;;;5035827;28;20213;-72
2021/04/26 10:04:04;;;;;;;2.50;0.90;;;13.00;37.60;;;;;;5035800;28;20210;-72
2021/04/26 10:06:31;;;;;;;1.20;1.10;;;12.90;37.10;;;;;;5039362;28;20301;-71
2021/04/26 10:08:59;;;;;;;1.33;0.80;;;12.90;37.10;;;;;;5038283;28;20221;-72
2021/04/26 10:11:27;;;;;;;0.73;0.73;;;12.70;36.90;;;;;;5036369;28;20237;-72
2021/04/26 10:14:01;;;;;;;2.80;0.67;;;12.60;36.90;;;;;;5034315;28;20384;-73
2021/04/26 10:16:36;;;;;;;1.17;0.70;;;12.80;36.90;;;;;;5037764;28;20311;-72
2021/04/26 10:19:05;;;;;;;1.30;0.67;;;13.00;35.80;;;;;;5035254;28;20701;-73
2021/04/26 10:21:34;;;;;;;1.00;0.90;;;13.20;36.10;;;;;;5033289;28;20206;-74
2021/04/26 10:24:17;;;;;;;1.27;0.73;;;13.70;36.20;;;;;;5036600;28;20246;-72
2021/04/26 10:26:47;;;;;;;1.07;0.70;;;14.30;36.40;;;;;;5033092;28;20297;-72
2021/04/26 10:29:16;;;;;;;1.80;0.80;;;14.90;35.60;;;;;;5032409;28;20206;-72
2021/04/26 10:32:05;;;;;;;4.20;1.00;;;15.20;34.50;;;;;;5036198;28;20242;-76
2021/04/26 10:34:34;;;;;;;1.10;0.60;;;15.50;34.10;;;;;;5034837;28;20214;-75
2021/04/26 10:37:03;;;;;;;2.77;0.90;;;15.60;33.50;;;;;;5033394;28;20653;-73
2021/04/26 10:39:32;;;;;;;0.83;0.53;;;15.70;33.30;;;;;;5034645;28;20238;-73
2021/04/26 10:42:08;;;;;;;1.33;0.77;;;15.70;32.50;;;;;;5033931;28;20670;-75
2021/04/26 10:45:03;;;;;;;1.13;0.67;;;15.50;32.30;;;;;;5037378;28;20281;-72
2021/04/26 10:47:32;;;;;;;3.03;0.57;;;15.50;32.10;;;;;;5035520;28;20202;-73
2021/04/26 10:50:28;;;;;;;0.50;0.40;;;15.40;31.90;;;;;;5034190;28;20274;-74
2021/04/26 10:52:56;;;;;;;0.80;0.60;;;15.50;32.40;;;;;;5035542;28;20202;-72
2021/04/26 10:55:56;;;;;;;2.57;0.90;;;15.60;32.30;;;;;;5036608;28;20298;-73
2021/04/26 10:58:34;;;;;;;2.07;0.87;;;15.50;32.40;;;;;;5033971;28;20557;-73
2021/04/26 11:01:01;;;;;;;2.80;0.97;;;15.50;33.00;;;;;;5034212;28;20229;-72
2021/04/26 11:03:40;;;;;;;1.90;0.67;;;15.50;33.40;;;;;;5037148;28;20214;-73
2021/04/26 11:06:25;;;;;;;1.10;0.90;;;15.70;33.40;;;;;;5030586;28;20249;-74
2021/04/26 11:09:05;;;;;;;1.70;0.63;;;15.80;33.50;;;;;;5036907;28;20612;-73
2021/04/26 11:11:37;;;;;;;0.80;0.80;;;15.80;33.30;;;;;;5035749;28;20209;-73
2021/04/26 11:14:04;;;;;;;1.30;0.80;;;15.70;33.30;;;;;;5033191;28;20303;-74
2021/04/26 11:16:37;;;;;;;0.60;0.60;;;15.60;33.80;;;;;;5036115;28;20222;-73
2021/04/26 11:19:09;;;;;;;2.23;1.00;;;15.40;33.50;;;;;;5033769;28;20221;-72
2021/04/26 11:21:57;;;;;;;2.87;1.10;;;15.20;33.90;;;;;;5033261;28;20205;-73
2021/04/26 11:25:02;;;;;;;1.90;0.80;;;14.90;33.60;;;;;;5034095;28;20230;-73
2021/04/26 11:27:29;;;;;;;2.33;0.70;;;14.60;33.70;;;;;;5034897;28;20757;-72
2021/04/26 11:30:26;;;;;;;3.33;1.07;;;14.10;33.90;;;;;;5034277;28;20636;-73
2021/04/26 11:33:03;;;;;;;1.87;1.13;;;13.60;35.10;;;;;;5029549;28;20351;-74
2021/04/26 11:35:29;;;;;;;1.07;1.00;;;13.10;34.70;;;;;;5030733;28;20289;-73
2021/04/26 11:37:57;;;;;;;2.23;1.60;;;12.60;35.40;;;;;;5034541;28;20203;-73
2021/04/26 11:40:26;;;;;;;3.43;1.50;;;12.20;36.60;;;;;;5032629;28;20678;-73
2021/04/26 11:43:00;;;;;;;6.40;1.63;;;11.70;38.90;;;;;;5033922;28;20214;-76
2021/04/26 11:45:27;;;;;;;3.00;1.47;;;11.10;41.60;;;;;;5034266;28;20216;-74
2021/04/26 11:47:53;;;;;;;4.00;1.43;;;10.60;43.90;;;;;;5033308;28;20644;-72
2021/04/26 11:50:21;;;;;;;3.77;1.30;;;10.30;45.70;;;;;;5032963;28;20226;-75
2021/04/26 11:52:48;;;;;;;1.93;1.40;;;10.40;47.10;;;;;;5035190;28;20266;-73
2021/04/26 11:55:18;;;;;;;4.70;1.73;;;10.60;48.10;;;;;;5031924;28;20373;-74
2021/04/26 11:57:47;;;;;;;1.50;1.10;;;10.70;48.10;;;;;;5033931;28;20237;-73
2021/04/26 12:00:16;;;;;;;1.37;1.27;;;11.00;47.40;;;;;;5034759;28;20249;-73
2021/04/26 12:02:45;;;;;;;1.53;1.27;;;11.10;46.90;;;;;;5033361;28;20241;-73
2021/04/26 12:05:14;;;;;;;1.40;1.30;;;11.20;46.90;;;;;;5028940;28;20211;-72
2021/04/26 12:07:41;;;;;;;3.53;1.03;;;11.40;46.50;;;;;;5028900;28;20211;-73
2021/04/26 12:10:11;;;;;;;1.60;1.20;;;11.70;46.00;;;;;;5030865;28;20205;-73
2021/04/26 12:12:41;;;;;;;1.70;1.20;;;11.90;45.70;;;;;;5032373;28;20222;-74
2021/04/26 12:15:10;;;;;;;2.30;1.20;;;12.20;44.00;;;;;;5033142;28;20226;-72
2021/04/26 12:17:37;;;;;;;2.77;1.60;;;12.50;42.80;;;;;;5034154;28;20297;-71
2021/04/26 12:20:13;;;;;;;2.40;1.10;;;12.70;42.60;;;;;;5033320;28;20250;-72
2021/04/26 12:22:39;;;;;;;1.67;1.10;;;12.70;41.40;;;;;;5031154;28;20293;-70
2021/04/26 12:25:08;;;;;;;1.43;0.90;;;12.70;40.90;;;;;;5028583;28;20241;-73
2021/04/26 12:27:35;;;;;;;2.60;1.27;;;12.70;40.40;;;;;;5031346;28;20305;-73
2021/04/26 12:30:16;;;;;;;1.43;1.10;;;12.80;40.80;;;;;;5032279;28;20294;-72
2021/04/26 12:32:43;;;;;;;2.00;0.90;;;12.90;40.70;;;;;;5033076;28;20283;-73
2021/04/26 12:35:11;;;;;;;2.50;1.27;;;12.90;40.50;;;;;;5032884;28;20206;-72
2021/04/26 12:37:40;;;;;;;1.03;1.00;;;13.00;40.80;;;;;;5032006;28;20724;-72
2021/04/26 12:40:15;;;;;;;1.13;1.03;;;13.00;41.30;;;;;;5032841;28;20671;-71
2021/04/26 12:42:43;;;;;;;1.97;1.10;;;12.90;41.20;;;;;;5030238;28;21008;-74
2021/04/26 12:45:12;;;;;;;1.30;1.20;;;12.90;41.00;;;;;;5033165;28;20210;-72
2021/04/26 12:47:50;;;;;;;2.53;1.10;;;12.90;41.10;;;;;;5031396;28;20639;-75
2021/04/26 12:50:19;;;;;;;1.70;1.10;;;12.90;41.10;;;;;;5032487;28;20262;-75
2021/04/26 12:53:12;;;;;;;2.00;1.30;;;13.00;41.20;;;;;;5028836;28;20234;-74
2021/04/26 12:55:41;;;;;;;2.50;1.30;;;13.10;41.20;;;;;;5030189;28;20687;-72
2021/04/26 12:58:09;;;;;;;1.90;0.93;;;13.10;41.10;;;;;;5032555;28;20246;-72
2021/04/26 13:00:40;;;;;;;2.97;1.13;;;13.00;41.50;;;;;;5031603;28;20266;-74
2021/04/26 13:03:33;;;;;;;3.47;1.40;;;12.90;41.20;;;;;;5032680;28;20210;-72
2021/04/26 13:06:03;;;;;;;2.20;1.30;;;12.90;41.30;;;;;;5032115;28;20305;-73